createdAt,value
2018-04-19T00:02:06.051Z,8.00
2018-04-19T00:04:34.118Z,7.07
2018-04-19T00:07:02.186Z,7.23
2018-04-19T00:09:30.246Z,8.23
2018-04-19T00:11:58.307Z,7.30
2018-04-19T00:14:26.371Z,7.80
2018-04-19T00:16:54.428Z,8.20
2018-04-19T00:19:22.481Z,7.30
2018-04-19T00:21:51.470Z,7.97
2018-04-19T00:24:19.538Z,7.60
2018-04-19T00:26:47.607Z,7.93
2018-04-19T00:29:16.444Z,7.50
2018-04-19T00:31:44.515Z,8.00
2018-04-19T00:34:12.591Z,8.03
2018-04-19T00:36:40.644Z,8.07
2018-04-19T00:39:08.710Z,8.23
2018-04-19T00:41:36.777Z,8.90
2018-04-19T00:44:04.843Z,7.67
2018-04-19T00:46:34.838Z,7.93
2018-04-19T00:49:03.663Z,9.40
2018-04-19T00:51:31.736Z,8.57
2018-04-19T00:54:01.938Z,8.53
2018-04-19T00:56:30.017Z,7.90
2018-04-19T00:58:58.077Z,8.47
2018-04-19T01:01:26.147Z,8.70
2018-04-19T01:03:54.219Z,7.90
2018-04-19T01:06:22.290Z,8.70
2018-04-19T01:08:50.369Z,8.50
2018-04-19T01:11:18.476Z,8.57
2018-04-19T01:13:46.531Z,8.53
2018-04-19T01:16:14.591Z,7.93
2018-04-19T01:18:42.753Z,8.17
2018-04-19T01:21:11.572Z,7.93
2018-04-19T01:23:39.625Z,7.97
2018-04-19T01:26:07.730Z,9.13
2018-04-19T01:28:35.787Z,8.70
2018-04-19T01:31:03.891Z,8.53
2018-04-19T01:33:31.993Z,8.70
2018-04-19T01:36:16.486Z,9.03
2018-04-19T01:38:44.545Z,9.63
2018-04-19T01:41:12.624Z,9.53
2018-04-19T01:43:40.700Z,9.57
2018-04-19T01:46:08.763Z,9.97
2018-04-19T01:48:36.827Z,10.30
2018-04-19T01:51:04.912Z,10.20
2018-04-19T01:53:32.971Z,9.50
2018-04-19T01:56:01.042Z,10.70
2018-04-19T01:58:29.107Z,10.03
2018-04-19T02:00:57.192Z,10.37
2018-04-19T02:03:25.250Z,10.27
2018-04-19T02:05:53.318Z,10.97
2018-04-19T02:08:21.382Z,9.63
2018-04-19T02:10:49.451Z,9.70
2018-04-19T02:13:17.510Z,10.20
2018-04-19T02:15:45.781Z,9.50
2018-04-19T02:46:52.028Z,9.33
2018-04-19T02:49:20.144Z,8.70
2018-04-19T02:51:48.192Z,8.87
2018-04-19T02:54:17.229Z,9.30
2018-04-19T02:56:45.288Z,9.20
2018-04-19T02:59:13.341Z,9.03
2018-04-19T03:01:41.389Z,9.30
2018-04-19T03:04:09.462Z,9.33
2018-04-19T03:06:37.497Z,9.03
2018-04-19T03:09:06.323Z,9.40
2018-04-19T03:11:34.370Z,8.20
2018-04-19T03:14:03.189Z,8.53
2018-04-19T03:16:32.485Z,9.07
2018-04-19T03:19:00.528Z,9.87
2018-04-19T03:21:29.353Z,9.07
2018-04-19T03:23:57.396Z,8.70
2018-04-19T03:26:25.448Z,9.07
2018-04-19T03:28:54.262Z,8.20
2018-04-19T03:31:22.299Z,8.20
2018-04-19T03:33:50.348Z,8.27
2018-04-19T03:36:18.399Z,9.77
2018-04-19T03:38:46.453Z,9.00
2018-04-19T03:41:14.645Z,9.20
2018-04-19T03:43:42.766Z,9.17
2018-04-19T03:46:12.602Z,8.90
2018-04-19T03:48:40.660Z,9.17
2018-04-19T03:51:08.765Z,9.00
2018-04-19T03:53:36.819Z,8.93
2018-04-19T03:56:04.863Z,8.83
2018-04-19T03:58:33.693Z,9.63
2018-04-19T04:01:01.795Z,9.17
2018-04-19T04:03:29.792Z,8.90
2018-04-19T04:05:57.836Z,9.33
2018-04-19T04:08:25.892Z,9.40
2018-04-19T04:10:53.940Z,8.53
2018-04-19T04:13:22.004Z,9.50
2018-04-19T04:15:50.047Z,8.73
2018-04-19T04:18:30.716Z,8.87
2018-04-19T04:21:11.501Z,8.90
2018-04-19T04:23:51.372Z,9.43
2018-04-19T04:26:19.380Z,9.00
2018-04-19T04:28:47.432Z,8.90
2018-04-19T04:31:15.711Z,8.67
2018-04-19T04:33:43.950Z,8.87
2018-04-19T04:36:11.973Z,8.90
2018-04-19T04:38:40.026Z,8.47
2018-04-19T04:41:08.065Z,8.17
2018-04-19T04:43:36.958Z,8.63
2018-04-19T04:46:05.033Z,8.73
2018-04-19T04:48:34.001Z,8.23
2018-04-19T04:51:02.053Z,8.33
2018-04-19T04:53:31.080Z,9.13
2018-04-19T04:55:59.137Z,8.17
2018-04-19T04:58:27.175Z,8.10
2018-04-19T05:00:55.224Z,8.30
2018-04-19T05:03:23.265Z,8.90
2018-04-19T05:05:51.323Z,8.47
2018-04-19T05:08:19.361Z,8.40
2018-04-19T05:10:47.411Z,9.07
2018-04-19T05:13:15.440Z,8.37
2018-04-19T05:15:43.493Z,8.77
2018-04-19T05:18:11.541Z,8.33
2018-04-19T05:20:39.603Z,8.73
2018-04-19T05:23:07.650Z,9.27
2018-04-19T05:25:35.704Z,8.60
2018-04-19T05:28:09.824Z,15.67
2018-04-19T05:30:38.234Z,8.37
2018-04-19T05:33:06.277Z,8.50
2018-04-19T05:35:34.353Z,8.33
2018-04-19T05:38:02.405Z,8.60
2018-04-19T05:40:30.462Z,9.57
2018-04-19T05:42:58.504Z,8.47
2018-04-19T05:45:26.556Z,8.40
2018-04-19T05:47:54.600Z,8.13
2018-04-19T05:50:22.663Z,8.70
2018-04-19T05:52:50.743Z,7.40
2018-04-19T05:55:18.781Z,7.47
2018-04-19T05:57:46.833Z,7.50
2018-04-19T06:00:15.661Z,7.83
2018-04-19T06:02:43.727Z,8.07
2018-04-19T06:05:11.776Z,9.20
2018-04-19T06:07:39.832Z,8.13
2018-04-19T06:10:08.657Z,7.50
2018-04-19T06:12:36.692Z,8.60
2018-04-19T06:15:05.508Z,8.20
2018-04-19T06:17:33.560Z,7.10
2018-04-19T06:20:01.629Z,7.33
2018-04-19T06:22:29.686Z,7.17
2018-04-19T06:24:57.773Z,6.70
2018-04-19T06:27:25.776Z,6.90
2018-04-19T06:29:53.816Z,7.60
2018-04-19T06:32:21.881Z,7.47
2018-04-19T06:34:49.912Z,6.73
2018-04-19T06:37:17.968Z,7.57
2018-04-19T06:39:46.220Z,7.80
2018-04-19T06:42:14.274Z,8.00
2018-04-19T06:44:44.306Z,7.30
2018-04-19T06:47:12.345Z,7.50
2018-04-19T06:49:40.404Z,7.53
2018-04-19T06:52:08.457Z,7.70
2018-04-19T06:54:36.508Z,8.17
2018-04-19T06:57:04.568Z,7.43
2018-04-19T06:59:32.635Z,7.93
2018-04-19T07:02:00.703Z,7.17
2018-04-19T07:04:29.480Z,7.30
2018-04-19T07:06:57.807Z,6.80
2018-04-19T07:09:25.863Z,7.00
2018-04-19T07:11:53.913Z,7.70
2018-04-19T07:14:21.959Z,6.87
2018-04-19T07:16:50.792Z,6.73
2018-04-19T07:19:18.840Z,6.73
2018-04-19T07:21:46.898Z,6.43
2018-04-19T07:24:14.946Z,6.80
2018-04-19T07:26:44.299Z,6.80
2018-04-19T07:29:12.336Z,6.50
2018-04-19T07:31:40.396Z,6.33
2018-04-19T07:34:08.445Z,6.37
2018-04-19T07:36:36.536Z,6.73
2018-04-19T07:39:04.835Z,6.47
2018-04-19T07:41:32.854Z,6.27
2018-04-19T07:44:00.907Z,6.93
2018-04-19T07:46:28.954Z,6.37
2018-04-19T07:48:57.009Z,6.00
2018-04-19T07:54:19.022Z,5.30
2018-04-19T07:56:47.064Z,4.90
2018-04-19T07:59:15.316Z,5.20
2018-04-19T08:01:43.352Z,4.60
2018-04-19T08:04:11.396Z,4.63
2018-04-19T08:06:39.448Z,4.63
2018-04-19T08:09:07.497Z,5.43
2018-04-19T08:11:35.536Z,4.50
2018-04-19T08:14:03.589Z,4.50
2018-04-19T08:16:31.640Z,5.00
2018-04-19T08:18:59.682Z,4.43
2018-04-19T08:21:27.716Z,4.20
2018-04-19T08:23:55.784Z,3.93
2018-04-19T08:26:23.827Z,4.10
2018-04-19T08:28:51.889Z,3.90
2018-04-19T08:31:19.933Z,3.70
2018-04-19T08:33:47.981Z,3.60
2018-04-19T08:36:16.790Z,3.80
2018-04-19T08:38:44.841Z,3.40
2018-04-19T08:41:12.899Z,3.40
2018-04-19T08:43:40.955Z,3.47
2018-04-19T08:46:09.304Z,4.00
2018-04-19T08:48:37.374Z,4.10
2018-04-19T08:51:05.412Z,3.10
2018-04-19T08:53:33.464Z,3.80
2018-04-19T08:56:01.502Z,3.00
2018-04-19T08:58:29.568Z,2.93
2018-04-19T09:00:57.827Z,3.60
2018-04-19T09:03:25.888Z,2.90
2018-04-19T09:05:53.925Z,2.80
2018-04-19T09:08:22.773Z,2.60
2018-04-19T09:10:50.825Z,2.57
2018-04-19T09:13:18.899Z,2.63
2018-04-19T09:15:46.959Z,2.53
2018-04-19T09:18:15.756Z,2.23
2018-04-19T09:20:43.814Z,2.43
2018-04-19T09:23:11.926Z,2.20
2018-04-19T09:25:39.920Z,2.63
2018-04-19T09:28:07.971Z,2.83
2018-04-19T09:30:36.029Z,1.90
2018-04-19T09:33:04.077Z,1.83
2018-04-19T09:35:32.130Z,4.30
2018-04-19T09:38:00.168Z,2.10
2018-04-19T09:40:28.226Z,2.40
2018-04-19T09:42:56.275Z,2.87
2018-04-19T09:45:24.332Z,1.80
2018-04-19T09:47:52.382Z,1.98
2018-04-19T09:50:20.652Z,1.62
2018-04-19T09:52:48.690Z,1.70
2018-04-19T09:55:17.025Z,1.77
2018-04-19T09:57:58.821Z,1.67
2018-04-19T10:00:26.863Z,1.55
2018-04-19T10:03:01.878Z,1.30
2018-04-19T10:05:29.925Z,1.50
2018-04-19T10:07:57.964Z,1.67
2018-04-19T10:10:26.071Z,1.30
2018-04-19T10:12:54.084Z,2.00
2018-04-19T10:15:22.145Z,1.60
2018-04-19T10:17:50.185Z,1.52
2018-04-19T10:20:18.260Z,1.65
2018-04-19T10:22:46.374Z,1.37
2018-04-19T10:25:14.423Z,1.30
2018-04-19T10:27:42.464Z,1.65
2018-04-19T10:30:10.513Z,1.90
2018-04-19T10:32:38.552Z,1.35
2018-04-19T10:35:06.589Z,1.50
2018-04-19T10:37:34.783Z,2.50
2018-04-19T10:40:02.897Z,1.20
2018-04-19T10:42:30.944Z,1.37
2018-04-19T10:44:59.000Z,1.90
2018-04-19T10:47:27.045Z,1.67
2018-04-19T10:49:55.147Z,1.70
2018-04-19T10:52:23.176Z,1.52
2018-04-19T10:54:51.237Z,1.73
2018-04-19T10:57:19.280Z,1.60
2018-04-19T10:59:47.543Z,1.50
2018-04-19T11:02:15.614Z,1.80
2018-04-19T11:04:43.692Z,1.30
2018-04-19T11:07:11.743Z,1.40
2018-04-19T11:09:39.784Z,1.40
2018-04-19T11:12:07.842Z,1.70
2018-04-19T11:14:35.876Z,3.00
2018-04-19T11:17:03.938Z,1.87
2018-04-19T11:19:32.123Z,4.70
2018-04-19T11:22:00.176Z,1.83
2018-04-19T11:24:28.384Z,2.73
2018-04-19T11:26:56.432Z,1.60
2018-04-19T11:29:24.700Z,1.70
2018-04-19T11:31:52.772Z,1.63
2018-04-19T11:34:20.827Z,1.80
2018-04-19T11:36:49.645Z,1.53
2018-04-19T11:39:17.688Z,1.70
2018-04-19T11:41:46.500Z,1.90
2018-04-19T11:44:14.572Z,2.00
2018-04-19T11:46:42.623Z,2.57
2018-04-19T11:49:10.670Z,2.07
2018-04-19T11:51:38.718Z,2.23
2018-04-19T11:54:06.760Z,2.47
2018-04-19T11:56:34.814Z,2.60
2018-04-19T11:59:02.865Z,2.67
2018-04-19T12:01:31.681Z,2.73
2018-04-19T12:03:59.712Z,2.50
2018-04-19T12:06:28.523Z,2.37
2018-04-19T12:08:56.561Z,2.20
2018-04-19T12:11:24.616Z,3.37
2018-04-19T12:13:52.718Z,2.83
2018-04-19T12:16:20.742Z,2.90
2018-04-19T12:18:48.786Z,3.07
2018-04-19T12:21:16.829Z,3.20
2018-04-19T12:23:44.873Z,2.93
2018-04-19T12:26:12.924Z,2.63
2018-04-19T12:28:40.979Z,2.80
2018-04-19T12:31:09.012Z,3.30
2018-04-19T12:33:37.850Z,2.90
2018-04-19T12:36:05.900Z,3.50
2018-04-19T12:38:33.931Z,2.73
2018-04-19T12:41:02.020Z,2.20
2018-04-19T12:43:30.879Z,3.00
2018-04-19T12:45:58.884Z,2.87
2018-04-19T12:48:27.969Z,3.17
2018-04-19T12:50:56.972Z,3.10
2018-04-19T12:53:25.027Z,3.15
2018-04-19T12:55:53.836Z,3.00
2018-04-19T12:58:21.889Z,2.70
2018-04-19T13:00:50.879Z,2.60
2018-04-19T13:03:19.698Z,2.50
2018-04-19T13:05:47.764Z,2.45
2018-04-19T13:08:15.824Z,2.40
2018-04-19T13:10:44.636Z,2.30
2018-04-19T13:13:12.684Z,2.83
2018-04-19T13:15:40.729Z,2.85
2018-04-19T13:18:08.789Z,2.40
2018-04-19T13:20:36.819Z,2.53
2018-04-19T13:23:04.876Z,2.67
2018-04-19T13:25:32.917Z,2.50
2018-04-19T13:28:01.744Z,2.62
2018-04-19T13:30:29.775Z,2.87
2018-04-19T13:32:58.604Z,3.42
2018-04-19T13:35:26.648Z,3.00
2018-04-19T13:37:55.473Z,2.97
2018-04-19T13:40:23.533Z,3.20
2018-04-19T13:42:51.580Z,3.03
2018-04-19T13:45:20.388Z,3.28
2018-04-19T13:47:48.436Z,3.90
2018-04-19T13:50:17.250Z,3.92
2018-04-19T13:52:45.288Z,4.40
2018-04-19T13:55:14.131Z,3.95
2018-04-19T13:57:42.176Z,4.53
2018-04-19T14:00:10.220Z,4.85
2018-04-19T14:02:39.038Z,3.80
2018-04-19T14:05:07.076Z,4.82
2018-04-19T14:07:35.896Z,3.95
2018-04-19T14:10:03.948Z,3.60
2018-04-19T14:12:32.764Z,3.55
2018-04-19T14:15:00.812Z,4.70
2018-04-19T14:17:28.856Z,4.30
2018-04-19T14:19:56.924Z,4.10
2018-04-19T14:22:24.960Z,5.20
2018-04-19T14:24:53.008Z,6.20
2018-04-19T14:27:21.052Z,5.37
2018-04-19T14:29:49.868Z,4.95
2018-04-19T14:32:17.913Z,7.18
2018-04-19T14:34:46.736Z,5.70
2018-04-19T14:37:14.775Z,5.57
2018-04-19T14:39:43.590Z,4.62
2018-04-19T14:42:11.634Z,6.20
2018-04-19T14:44:40.558Z,5.37
2018-04-19T14:47:08.617Z,5.72
2018-04-19T14:49:36.676Z,6.47
2018-04-19T14:52:05.489Z,6.28
2018-04-19T14:54:33.548Z,6.37
2018-04-19T14:57:01.601Z,6.55
2018-04-19T14:59:30.424Z,5.80
2018-04-19T15:01:58.464Z,8.50
2018-04-19T15:04:26.521Z,10.23
2018-04-19T15:06:55.368Z,8.38
2018-04-19T15:09:23.442Z,6.50
2018-04-19T15:11:51.488Z,6.72
2018-04-19T15:14:19.532Z,6.37
2018-04-19T15:16:47.576Z,7.37
2018-04-19T15:19:15.628Z,8.32
2018-04-19T15:21:43.686Z,8.68
2018-04-19T15:24:11.740Z,7.10
2018-04-19T15:26:39.789Z,10.80
2018-04-19T15:29:08.600Z,9.85
2018-04-19T15:31:36.691Z,9.55
2018-04-19T15:34:04.702Z,7.82
2018-04-19T15:36:33.522Z,9.18
2018-04-19T15:39:01.594Z,7.82
2018-04-19T15:41:30.381Z,8.25
2018-04-19T15:43:58.446Z,8.80
2018-04-19T15:46:26.533Z,8.10
2018-04-19T15:48:54.581Z,7.25
2018-04-19T15:51:22.737Z,6.68
2018-04-19T15:53:51.747Z,13.40
2018-04-19T15:56:20.117Z,6.95
2018-04-19T15:58:48.941Z,7.80
2018-04-19T16:01:16.997Z,7.22
2018-04-19T16:03:45.061Z,7.55
2018-04-19T16:06:13.141Z,5.97
2018-04-19T16:08:41.260Z,5.30
2018-04-19T16:11:10.179Z,5.60
2018-04-19T16:13:38.979Z,6.62
2018-04-19T16:16:07.103Z,6.90
2018-04-19T16:18:35.165Z,7.05
2018-04-19T16:21:03.356Z,6.27
2018-04-19T16:23:31.341Z,8.20
2018-04-19T16:26:00.185Z,6.87
2018-04-19T16:28:28.248Z,12.07
2018-04-19T16:30:56.445Z,9.27
2018-04-19T16:33:25.733Z,8.37
2018-04-19T16:35:53.880Z,6.40
2018-04-19T16:38:21.924Z,5.53
2018-04-19T16:40:49.961Z,7.10
2018-04-19T16:43:18.026Z,6.73
2018-04-19T16:45:47.450Z,10.70
2018-04-19T16:48:29.774Z,8.97
2018-04-19T16:50:57.818Z,5.10
2018-04-19T16:53:25.872Z,8.47
2018-04-19T16:55:55.764Z,4.90
2018-04-19T16:58:24.713Z,4.40
2018-04-19T17:00:52.781Z,5.10
2018-04-19T17:03:20.904Z,9.10
2018-04-19T17:05:48.948Z,4.93
2018-04-19T17:08:17.761Z,5.90
2018-04-19T17:10:45.848Z,6.23
2018-04-19T17:13:13.891Z,7.00
2018-04-19T17:15:41.964Z,7.40
2018-04-19T17:18:10.002Z,7.07
2018-04-19T17:20:38.821Z,7.80
2018-04-19T17:23:06.868Z,7.70
2018-04-19T17:25:35.684Z,7.33
2018-04-19T17:28:03.737Z,7.03
2018-04-19T17:30:31.801Z,7.37
2018-04-19T17:33:00.613Z,7.40
2018-04-19T17:35:28.699Z,7.00
2018-04-19T17:37:56.767Z,8.13
2018-04-19T17:40:24.829Z,7.13
2018-04-19T17:42:52.973Z,6.77
2018-04-19T17:45:21.873Z,6.67
2018-04-19T17:47:50.676Z,6.83
2018-04-19T17:50:18.726Z,7.87
2018-04-19T17:52:47.565Z,7.50
2018-04-19T17:55:15.608Z,10.47
2018-04-19T17:57:43.692Z,8.47
2018-04-19T18:00:11.748Z,7.23
2018-04-19T18:02:39.869Z,6.03
2018-04-19T18:05:07.920Z,6.43
2018-04-19T18:07:35.980Z,6.20
2018-04-19T18:10:04.346Z,6.90
2018-04-19T18:12:32.430Z,5.37
2018-04-19T18:15:01.269Z,6.00
2018-04-19T18:17:29.496Z,5.40
2018-04-19T18:19:57.549Z,6.13
2018-04-19T18:22:25.596Z,5.43
2018-04-19T18:24:54.412Z,5.53
2018-04-19T18:27:22.457Z,5.87
2018-04-19T18:29:51.333Z,7.40
2018-04-19T18:32:19.350Z,6.30
2018-04-19T18:34:47.405Z,5.60
2018-04-19T18:37:15.464Z,6.40
2018-04-19T18:39:43.533Z,6.13
2018-04-19T18:42:12.336Z,6.63
2018-04-19T18:44:40.600Z,6.23
2018-04-19T18:47:08.656Z,6.10
2018-04-19T18:49:37.625Z,6.70
2018-04-19T18:52:05.689Z,6.77
2018-04-19T18:54:33.730Z,7.73
2018-04-19T18:57:01.776Z,6.00
2018-04-19T18:59:29.825Z,5.50
2018-04-19T19:01:58.649Z,5.27
2018-04-19T19:04:26.886Z,8.37
2018-04-19T19:06:54.913Z,5.73
2018-04-19T19:09:22.949Z,5.63
2018-04-19T19:11:50.992Z,5.67
2018-04-19T19:14:19.036Z,6.80
2018-04-19T19:16:51.096Z,4.93
2018-04-19T19:19:30.833Z,5.60
2018-04-19T19:21:58.891Z,5.60
2018-04-19T19:24:26.920Z,5.90
2018-04-19T19:26:54.997Z,5.87
2018-04-19T19:29:23.816Z,5.33
2018-04-19T19:31:51.881Z,5.17
2018-04-19T19:34:19.911Z,5.40
2018-04-19T19:36:47.968Z,5.60
2018-04-19T19:39:16.021Z,5.23
2018-04-19T19:41:44.080Z,5.93
2018-04-19T19:44:12.130Z,6.40
2018-04-19T19:46:40.181Z,6.37
2018-04-19T19:49:08.991Z,5.47
2018-04-19T19:51:37.063Z,5.43
2018-04-19T19:54:05.155Z,7.03
2018-04-19T19:56:33.363Z,6.30
2018-04-19T19:59:01.439Z,5.67
2018-04-19T20:01:29.478Z,5.63
2018-04-19T20:04:02.112Z,6.17
2018-04-19T20:06:33.300Z,6.30
2018-04-19T20:09:01.312Z,6.00
2018-04-19T20:11:29.376Z,5.73
2018-04-19T20:13:57.440Z,6.03
2018-04-19T20:16:25.566Z,5.80
2018-04-19T20:18:53.637Z,5.20
2018-04-19T20:21:21.682Z,5.50
2018-04-19T20:23:49.728Z,5.50
2018-04-19T20:26:17.763Z,5.63
2018-04-19T20:28:45.825Z,6.30
2018-04-19T20:31:13.868Z,5.63
2018-04-19T20:33:42.684Z,5.53
2018-04-19T20:36:10.744Z,5.13
2018-04-19T20:38:38.795Z,4.93
2018-04-19T20:41:07.605Z,5.50
2018-04-19T20:43:35.660Z,5.13
2018-04-19T20:46:03.713Z,5.30
2018-04-19T20:48:33.531Z,5.57
2018-04-19T20:51:02.348Z,5.23
2018-04-19T20:53:30.415Z,5.93
2018-04-19T20:55:59.020Z,5.50
2018-04-19T20:58:27.092Z,5.47
2018-04-19T21:00:55.583Z,5.17
2018-04-19T21:03:23.633Z,4.97
2018-04-19T21:05:51.721Z,5.23
2018-04-19T21:08:19.773Z,5.10
2018-04-19T21:10:47.872Z,5.07
2018-04-19T21:13:15.919Z,5.07
2018-04-19T21:15:43.983Z,4.80
2018-04-19T21:18:12.012Z,4.77
2018-04-19T21:20:40.831Z,5.10
2018-04-19T21:23:08.883Z,4.90
2018-04-19T21:25:36.916Z,5.00
2018-04-19T21:28:04.956Z,5.47
2018-04-19T21:30:33.005Z,4.93
2018-04-19T21:33:01.043Z,4.80
2018-04-19T21:35:29.206Z,4.73
2018-04-19T21:37:58.199Z,5.27
2018-04-19T21:40:26.348Z,5.23
2018-04-19T21:42:55.155Z,4.87
2018-04-19T21:45:23.209Z,5.20
2018-04-19T21:47:51.257Z,5.00
2018-04-19T21:50:19.312Z,5.30
2018-04-19T21:52:48.116Z,5.10
2018-04-19T21:55:16.209Z,4.80
2018-04-19T21:57:44.780Z,4.70
2018-04-19T22:00:12.828Z,4.67
2018-04-19T22:02:40.914Z,4.77
2018-04-19T22:05:08.964Z,4.90
2018-04-19T22:07:37.783Z,4.93
2018-04-19T22:10:05.842Z,4.60
2018-04-19T22:12:34.506Z,5.00
2018-04-19T22:15:03.325Z,4.80
2018-04-19T22:17:31.379Z,4.57
2018-04-19T22:19:59.926Z,4.57
2018-04-19T22:22:28.264Z,4.50
2018-04-19T22:24:56.316Z,4.27
2018-04-19T22:27:24.392Z,4.33
2018-04-19T22:29:52.445Z,5.03
2018-04-19T22:32:20.480Z,5.90
2018-04-19T22:34:48.532Z,4.60
2018-04-19T22:37:16.579Z,4.70
2018-04-19T22:39:44.830Z,5.40
2018-04-19T22:42:12.849Z,3.87
2018-04-19T22:44:40.895Z,3.90
2018-04-19T22:47:08.963Z,4.27
2018-04-19T22:49:36.995Z,3.87
2018-04-19T22:52:05.808Z,4.17
2018-04-19T22:54:33.849Z,4.10
2018-04-19T22:57:01.910Z,3.93
2018-04-19T22:59:29.946Z,4.00
2018-04-19T23:01:58.072Z,4.10
2018-04-19T23:04:26.883Z,3.87
2018-04-19T23:06:54.920Z,3.60
2018-04-19T23:09:22.960Z,3.40
2018-04-19T23:11:51.017Z,3.73
2018-04-19T23:14:19.066Z,3.07
2018-04-19T23:16:47.196Z,3.80
2018-04-19T23:19:15.236Z,3.90
2018-04-19T23:21:43.289Z,3.40
2018-04-19T23:24:11.324Z,3.20
2018-04-19T23:26:40.141Z,3.17
2018-04-19T23:29:08.297Z,4.30
2018-04-19T23:31:37.115Z,3.20
2018-04-19T23:34:05.169Z,3.13
2018-04-19T23:36:33.853Z,3.60
2018-04-19T23:39:02.667Z,3.30
2018-04-19T23:41:30.720Z,3.17
2018-04-19T23:43:58.759Z,4.10
2018-04-19T23:46:27.568Z,3.37
2018-04-19T23:48:55.624Z,3.30
2018-04-19T23:51:24.436Z,3.53
2018-04-19T23:53:52.498Z,3.47
2018-04-19T23:56:20.532Z,3.40
2018-04-19T23:58:48.585Z,3.00
